Elliston, Montana
Current Conditions -  °F | °C
As of 6:53 PM on Monday 20 Oct 2014 (Local Time) from KHLN Reporting Station
Clear Clear  
Wind Chill: 71°   Ceiling: Unl
Heat Index: 71°   Visibility: 10mi
Dew Point: 32°   Wind: 8mph
Humidity: 24%   Direction: 190°S
Pressure: 29.76"   Gusts: NA
Location:  46.55°N, 112.44°W
Report Text: KHLN 210053Z 19007KT 10SM CLR 22/00 A2976 RMK AO2 SLP081 T02170000
Loading
Personal Weather Stations






























Interactive Weather Map
Tropical Storm Tracking
New forecast layout! Learn more

10-Day Weather Forecast

Advertisements
Track Severe Weather on mobile